RSU3004 SGAS-SLVR
Flight info
| Callsign | RSU3004 |
|---|---|
| Flight time | N/A |
| Altitude | 36000 |
| Route | OBLUM OBLUM UN420 KIMAL/N0447F370 UL793 OROMU/N0445F360 UL793 XOLAT UM415 TOMUR |
| Aircraft | B737/M-SDE2E3FGHIRWXY/LB1 |
Departure
| Time | 2026-04-30 19:53 |
|---|---|
| Airport | Silvio Pettirossi International Airport (SGAS) |
Arrival
| Time | N/A |
|---|---|
| Airport | Viru Viru International Airport (SLVR) |
| Time | Latitude | Longitude | Altitude | Speed | Heading |
|---|---|---|---|---|---|
| 2026-04-30 19:17 | -25.24127 | -57.51494 | 277 ft | 0 kts | 108° |
| 2026-04-30 19:41 | -25.24123 | -57.51509 | 278 ft | 2 kts | 109° |
| 2026-04-30 19:41 | -25.24117 | -57.51526 | 283 ft | 2 kts | 110° |
| 2026-04-30 19:42 | -25.24111 | -57.51543 | 281 ft | 2 kts | 112° |
| 2026-04-30 19:42 | -25.24104 | -57.51560 | 282 ft | 2 kts | 115° |
| 2026-04-30 19:42 | -25.24097 | -57.51576 | 280 ft | 2 kts | 121° |
| 2026-04-30 19:42 | -25.24087 | -57.51591 | 283 ft | 2 kts | 131° |
| 2026-04-30 19:43 | -25.24075 | -57.51603 | 284 ft | 2 kts | 158° |
| 2026-04-30 19:43 | -25.24060 | -57.51606 | 279 ft | 1 kts | 187° |
| 2026-04-30 19:43 | -25.24056 | -57.51605 | 280 ft | 0 kts | 189° |
| 2026-04-30 19:45 | -25.24065 | -57.51607 | 280 ft | 3 kts | 192° |
| 2026-04-30 19:46 | -25.24095 | -57.51613 | 281 ft | 5 kts | 191° |
| 2026-04-30 19:46 | -25.24136 | -57.51624 | 278 ft | 7 kts | 193° |
| 2026-04-30 19:46 | -25.24191 | -57.51638 | 278 ft | 9 kts | 193° |
| 2026-04-30 19:46 | -25.24260 | -57.51654 | 278 ft | 11 kts | 192° |
| 2026-04-30 19:47 | -25.24339 | -57.51678 | 278 ft | 12 kts | 213° |
| 2026-04-30 19:47 | -25.24376 | -57.51729 | 280 ft | 13 kts | 237° |
| 2026-04-30 19:47 | -25.24473 | -57.51812 | 278 ft | 15 kts | 192° |
| 2026-04-30 19:47 | -25.24578 | -57.51836 | 278 ft | 16 kts | 190° |
| 2026-04-30 19:48 | -25.24693 | -57.51866 | 278 ft | 18 kts | 192° |
| 2026-04-30 19:48 | -25.24815 | -57.51895 | 278 ft | 19 kts | 192° |
| 2026-04-30 19:48 | -25.24948 | -57.51927 | 278 ft | 20 kts | 193° |
| 2026-04-30 19:48 | -25.25087 | -57.51961 | 278 ft | 20 kts | 192° |
| 2026-04-30 19:49 | -25.25224 | -57.51994 | 278 ft | 20 kts | 191° |
| 2026-04-30 19:49 | -25.25457 | -57.52051 | 279 ft | 10 kts | 200° |
| 2026-04-30 19:49 | -25.25483 | -57.52116 | 280 ft | 10 kts | 278° |
| 2026-04-30 19:50 | -25.25473 | -57.52166 | 283 ft | 0 kts | 283° |
| 2026-04-30 19:50 | -25.25470 | -57.52178 | 284 ft | 4 kts | 283° |
| 2026-04-30 19:51 | -25.25465 | -57.52205 | 288 ft | 4 kts | 282° |
| 2026-04-30 19:51 | -25.25459 | -57.52231 | 287 ft | 3 kts | 286° |
| 2026-04-30 19:51 | -25.25443 | -57.52256 | 289 ft | 5 kts | 322° |
| 2026-04-30 19:51 | -25.25396 | -57.52252 | 286 ft | 10 kts | 18° |
| 2026-04-30 19:52 | -25.25339 | -57.52239 | 286 ft | 16 kts | 10° |
| 2026-04-30 19:52 | -25.25009 | -57.52153 | 283 ft | 85 kts | 17° |
| 2026-04-30 19:52 | -25.24229 | -57.51975 | 282 ft | 143 kts | 16° |
| 2026-04-30 19:52 | -25.23118 | -57.51760 | 513 ft | 173 kts | 12° |
| 2026-04-30 19:53 | -25.21927 | -57.51529 | 1259 ft | 169 kts | 3° |
| 2026-04-30 19:53 | -25.20859 | -57.51908 | 2149 ft | 161 kts | 330° |
| 2026-04-30 19:53 | -25.19854 | -57.52610 | 2569 ft | 185 kts | 333° |
| 2026-04-30 19:53 | -25.18648 | -57.53373 | 2847 ft | 214 kts | 333° |
| 2026-04-30 19:54 | -25.17266 | -57.54246 | 3098 ft | 244 kts | 332° |
| 2026-04-30 19:54 | -25.15742 | -57.55224 | 3636 ft | 258 kts | 332° |
| 2026-04-30 19:54 | -25.14205 | -57.56282 | 4471 ft | 262 kts | 329° |
| 2026-04-30 19:54 | -25.12700 | -57.57369 | 5365 ft | 261 kts | 328° |
| 2026-04-30 19:55 | -25.11164 | -57.58489 | 6295 ft | 262 kts | 327° |
| 2026-04-30 19:55 | -25.09658 | -57.59586 | 7166 ft | 263 kts | 327° |
| 2026-04-30 19:55 | -25.08129 | -57.60697 | 8078 ft | 263 kts | 327° |
| 2026-04-30 19:55 | -25.06595 | -57.61808 | 9006 ft | 264 kts | 327° |
| 2026-04-30 19:56 | -25.05051 | -57.62924 | 9969 ft | 265 kts | 327° |
| 2026-04-30 19:56 | -25.03469 | -57.64065 | 10493 ft | 283 kts | 327° |
| 2026-04-30 19:56 | -25.01734 | -57.65314 | 10670 ft | 310 kts | 327° |
| 2026-04-30 19:56 | -24.99871 | -57.66654 | 11069 ft | 326 kts | 327° |
| 2026-04-30 19:57 | -24.97964 | -57.68025 | 11717 ft | 333 kts | 327° |
| 2026-04-30 19:57 | -24.96007 | -57.69432 | 12452 ft | 338 kts | 327° |
| 2026-04-30 19:57 | -24.94019 | -57.70860 | 13190 ft | 342 kts | 327° |
| 2026-04-30 19:57 | -24.92007 | -57.72304 | 13890 ft | 347 kts | 327° |
| 2026-04-30 19:58 | -24.89972 | -57.73764 | 14553 ft | 351 kts | 327° |
| 2026-04-30 19:58 | -24.87918 | -57.75237 | 15228 ft | 354 kts | 327° |
| 2026-04-30 19:58 | -24.85841 | -57.76726 | 15892 ft | 358 kts | 327° |
| 2026-04-30 19:58 | -24.83734 | -57.78235 | 16545 ft | 363 kts | 327° |
| 2026-04-30 19:59 | -24.81608 | -57.79758 | 17183 ft | 367 kts | 327° |
| 2026-04-30 19:59 | -24.79458 | -57.81296 | 17832 ft | 370 kts | 327° |
| 2026-04-30 19:59 | -24.75085 | -57.84425 | 18947 ft | 378 kts | 326° |
| 2026-04-30 20:00 | -24.72872 | -57.86007 | 19497 ft | 381 kts | 326° |
| 2026-04-30 20:00 | -24.70640 | -57.87601 | 20037 ft | 384 kts | 326° |
| 2026-04-30 20:00 | -24.68392 | -57.89207 | 20560 ft | 387 kts | 325° |
| 2026-04-30 20:00 | -24.66118 | -57.90830 | 21082 ft | 390 kts | 325° |
| 2026-04-30 20:01 | -24.61555 | -57.94085 | 22092 ft | 396 kts | 324° |
| 2026-04-30 20:01 | -24.59231 | -57.95743 | 22577 ft | 400 kts | 324° |
| 2026-04-30 20:01 | -24.56891 | -57.97410 | 23054 ft | 403 kts | 324° |
| 2026-04-30 20:02 | -24.52164 | -58.00776 | 23944 ft | 407 kts | 324° |
| 2026-04-30 20:02 | -24.49769 | -58.02479 | 24413 ft | 407 kts | 324° |
| 2026-04-30 20:03 | -24.45009 | -58.05863 | 25346 ft | 408 kts | 324° |
| 2026-04-30 20:03 | -24.42625 | -58.07557 | 25771 ft | 409 kts | 324° |
| 2026-04-30 20:03 | -24.40235 | -58.09255 | 26186 ft | 410 kts | 324° |
| 2026-04-30 20:03 | -24.37831 | -58.10962 | 26610 ft | 411 kts | 324° |
| 2026-04-30 20:04 | -24.35427 | -58.12667 | 27039 ft | 412 kts | 324° |
| 2026-04-30 20:04 | -24.33018 | -58.14376 | 27446 ft | 413 kts | 324° |
| 2026-04-30 20:04 | -24.30600 | -58.16091 | 27833 ft | 415 kts | 324° |
| 2026-04-30 20:05 | -24.25759 | -58.19521 | 28565 ft | 418 kts | 324° |
| 2026-04-30 20:05 | -24.23311 | -58.21254 | 28928 ft | 420 kts | 324° |
| 2026-04-30 20:05 | -24.18400 | -58.24728 | 29877 ft | 417 kts | 324° |
| 2026-04-30 20:06 | -24.15975 | -58.26441 | 30435 ft | 413 kts | 324° |
| 2026-04-30 20:06 | -24.13567 | -58.28142 | 30871 ft | 412 kts | 324° |
| 2026-04-30 20:06 | -24.11160 | -58.29843 | 31263 ft | 412 kts | 323° |
| 2026-04-30 20:06 | -24.08755 | -58.31541 | 31705 ft | 410 kts | 323° |
| 2026-04-30 20:07 | -24.06359 | -58.33232 | 32194 ft | 408 kts | 323° |
| 2026-04-30 20:07 | -24.03978 | -58.34911 | 32691 ft | 406 kts | 323° |
| 2026-04-30 20:07 | -23.99247 | -58.38247 | 33590 ft | 403 kts | 323° |
| 2026-04-30 20:08 | -23.96891 | -58.39907 | 34004 ft | 402 kts | 323° |
| 2026-04-30 20:08 | -23.94552 | -58.41554 | 34407 ft | 399 kts | 323° |
| 2026-04-30 20:08 | -23.92229 | -58.43189 | 34868 ft | 395 kts | 323° |
| 2026-04-30 20:08 | -23.89953 | -58.44791 | 35285 ft | 392 kts | 323° |
| 2026-04-30 20:09 | -23.87666 | -58.46401 | 35633 ft | 391 kts | 323° |
| 2026-04-30 20:09 | -23.85380 | -58.48009 | 35904 ft | 391 kts | 323° |
| 2026-04-30 20:09 | -23.80870 | -58.51362 | 35902 ft | 390 kts | 319° |
| 2026-04-30 20:10 | -23.74401 | -58.56715 | 35907 ft | 388 kts | 319° |
| 2026-04-30 20:11 | -23.67985 | -58.62021 | 35902 ft | 386 kts | 319° |
| 2026-04-30 20:11 | -23.63690 | -58.65555 | 35901 ft | 386 kts | 319° |
| 2026-04-30 20:12 | -23.57248 | -58.70842 | 35903 ft | 386 kts | 319° |
| 2026-04-30 20:13 | -23.52948 | -58.74367 | 35903 ft | 387 kts | 319° |
| 2026-04-30 20:13 | -23.48643 | -58.77893 | 35900 ft | 387 kts | 320° |
| 2026-04-30 20:14 | -23.44355 | -58.81403 | 35900 ft | 388 kts | 320° |
| 2026-04-30 20:14 | -23.40031 | -58.84939 | 35901 ft | 389 kts | 320° |
| 2026-04-30 20:15 | -23.35701 | -58.88476 | 35899 ft | 389 kts | 320° |
| 2026-04-30 20:15 | -23.31356 | -58.92023 | 35902 ft | 390 kts | 320° |
| 2026-04-30 20:16 | -23.27012 | -58.95566 | 35900 ft | 391 kts | 320° |
| 2026-04-30 20:16 | -23.22659 | -58.99114 | 35898 ft | 391 kts | 320° |
| 2026-04-30 20:17 | -23.18295 | -59.02667 | 35901 ft | 392 kts | 320° |
| 2026-04-30 20:17 | -23.13920 | -59.06226 | 35896 ft | 392 kts | 320° |
| 2026-04-30 20:18 | -23.09573 | -59.09760 | 35898 ft | 392 kts | 320° |
| 2026-04-30 20:18 | -23.05200 | -59.13313 | 35899 ft | 392 kts | 320° |
| 2026-04-30 20:19 | -23.00821 | -59.16866 | 35894 ft | 393 kts | 320° |
| 2026-04-30 20:19 | -22.96446 | -59.20414 | 35897 ft | 392 kts | 320° |
| 2026-04-30 20:20 | -22.92073 | -59.23957 | 35898 ft | 392 kts | 320° |
| 2026-04-30 20:20 | -22.87700 | -59.27497 | 35897 ft | 392 kts | 320° |
| 2026-04-30 20:21 | -22.83358 | -59.31010 | 35896 ft | 391 kts | 320° |
| 2026-04-30 20:21 | -22.78994 | -59.34536 | 35895 ft | 391 kts | 320° |
| 2026-04-30 20:22 | -22.74633 | -59.38058 | 35894 ft | 391 kts | 320° |
| 2026-04-30 20:22 | -22.70272 | -59.41578 | 35895 ft | 391 kts | 320° |
| 2026-04-30 20:23 | -22.65913 | -59.45093 | 35894 ft | 391 kts | 320° |
| 2026-04-30 20:23 | -22.61550 | -59.48608 | 35896 ft | 391 kts | 320° |
| 2026-04-30 20:24 | -22.57188 | -59.52120 | 35890 ft | 391 kts | 320° |
| 2026-04-30 20:24 | -22.52821 | -59.55632 | 35888 ft | 391 kts | 320° |
| 2026-04-30 20:25 | -22.46276 | -59.60893 | 35902 ft | 391 kts | 321° |
| 2026-04-30 20:26 | -22.39725 | -59.66152 | 35886 ft | 391 kts | 321° |
| 2026-04-30 20:26 | -22.33202 | -59.71382 | 35897 ft | 391 kts | 321° |
| 2026-04-30 20:27 | -22.24451 | -59.78396 | 35889 ft | 392 kts | 321° |
| 2026-04-30 20:28 | -22.15688 | -59.85411 | 35887 ft | 392 kts | 321° |
| 2026-04-30 20:30 | -22.04722 | -59.94173 | 35885 ft | 393 kts | 321° |
| 2026-04-30 20:31 | -21.91556 | -60.04671 | 35881 ft | 393 kts | 321° |
| 2026-04-30 20:32 | -21.80558 | -60.13421 | 35879 ft | 393 kts | 321° |
| 2026-04-30 20:33 | -21.73968 | -60.18656 | 35884 ft | 396 kts | 321° |
| 2026-04-30 20:34 | -21.67187 | -60.24039 | 35880 ft | 408 kts | 321° |
| 2026-04-30 20:35 | -21.60343 | -60.29461 | 35874 ft | 407 kts | 321° |
| 2026-04-30 20:35 | -21.53505 | -60.34873 | 35871 ft | 406 kts | 321° |
| 2026-04-30 20:36 | -21.48985 | -60.38447 | 35871 ft | 406 kts | 321° |
| 2026-04-30 20:37 | -21.42160 | -60.43839 | 35871 ft | 405 kts | 321° |
| 2026-04-30 20:37 | -21.37617 | -60.47424 | 35871 ft | 405 kts | 322° |
| 2026-04-30 20:38 | -21.33844 | -60.50399 | 35871 ft | 405 kts | 322° |
| 2026-04-30 20:38 | -21.29301 | -60.53980 | 35872 ft | 405 kts | 322° |
| 2026-04-30 20:39 | -21.22479 | -60.59352 | 35868 ft | 405 kts | 322° |
| 2026-04-30 20:40 | -21.15660 | -60.64716 | 35867 ft | 406 kts | 322° |
| 2026-04-30 20:40 | -21.11137 | -60.68269 | 35867 ft | 406 kts | 322° |
| 2026-04-30 20:41 | -21.06136 | -60.71137 | 35866 ft | 412 kts | 336° |
| 2026-04-30 20:41 | -21.03377 | -60.72001 | 35866 ft | 416 kts | 343° |
| 2026-04-30 20:41 | -20.97727 | -60.73363 | 35868 ft | 416 kts | 343° |
| 2026-04-30 20:42 | -20.92068 | -60.74764 | 35863 ft | 417 kts | 343° |
| 2026-04-30 20:43 | -20.83576 | -60.76891 | 35867 ft | 418 kts | 343° |
| 2026-04-30 20:43 | -20.77907 | -60.78313 | 35866 ft | 419 kts | 343° |
| 2026-04-30 20:44 | -20.69389 | -60.80446 | 35865 ft | 419 kts | 343° |
| 2026-04-30 20:45 | -20.58014 | -60.83290 | 35864 ft | 420 kts | 343° |
| 2026-04-30 20:45 | -20.52354 | -60.84704 | 35867 ft | 420 kts | 343° |
| 2026-04-30 20:46 | -20.40976 | -60.87542 | 35864 ft | 420 kts | 343° |
| 2026-04-30 20:47 | -20.32448 | -60.89667 | 35860 ft | 420 kts | 343° |
| 2026-04-30 20:48 | -20.23912 | -60.91792 | 35863 ft | 420 kts | 343° |
| 2026-04-30 20:48 | -20.18253 | -60.93198 | 35861 ft | 420 kts | 343° |
| 2026-04-30 20:49 | -20.12564 | -60.94612 | 35866 ft | 420 kts | 343° |
| 2026-04-30 20:50 | -20.04030 | -60.96730 | 35864 ft | 420 kts | 343° |
| 2026-04-30 20:50 | -19.98344 | -60.98140 | 35860 ft | 419 kts | 343° |
| 2026-04-30 20:51 | -19.92657 | -60.99549 | 35867 ft | 419 kts | 343° |
| 2026-04-30 20:51 | -19.84124 | -61.01662 | 35864 ft | 420 kts | 343° |
| 2026-04-30 20:52 | -19.78437 | -61.03069 | 35865 ft | 420 kts | 343° |
| 2026-04-30 20:53 | -19.69909 | -61.05176 | 35869 ft | 420 kts | 343° |
| 2026-04-30 20:53 | -19.64216 | -61.06582 | 35862 ft | 420 kts | 344° |
| 2026-04-30 20:54 | -19.55709 | -61.08681 | 35866 ft | 420 kts | 343° |
| 2026-04-30 20:55 | -19.47766 | -61.12312 | 35867 ft | 415 kts | 330° |
| 2026-04-30 20:55 | -19.42671 | -61.15218 | 35871 ft | 415 kts | 330° |
| 2026-04-30 20:56 | -19.35005 | -61.19534 | 35863 ft | 416 kts | 330° |
| 2026-04-30 20:57 | -19.27367 | -61.23820 | 35861 ft | 416 kts | 330° |
| 2026-04-30 20:57 | -19.22246 | -61.26692 | 35865 ft | 416 kts | 330° |
| 2026-04-30 20:58 | -19.14559 | -61.31001 | 35864 ft | 417 kts | 330° |
| 2026-04-30 20:58 | -19.09432 | -61.33873 | 35869 ft | 417 kts | 330° |
| 2026-04-30 20:59 | -19.01732 | -61.38186 | 35871 ft | 417 kts | 329° |
| 2026-04-30 21:00 | -18.97224 | -61.41989 | 35869 ft | 416 kts | 313° |
| 2026-04-30 21:00 | -18.93679 | -61.46817 | 35875 ft | 417 kts | 308° |
| 2026-04-30 21:01 | -18.88409 | -61.54078 | 35865 ft | 415 kts | 308° |
| 2026-04-30 21:02 | -18.83158 | -61.61259 | 35851 ft | 411 kts | 308° |
| 2026-04-30 21:02 | -18.81400 | -61.63662 | 35456 ft | 412 kts | 308° |
| 2026-04-30 21:02 | -18.79661 | -61.66039 | 34994 ft | 408 kts | 308° |
| 2026-04-30 21:02 | -18.77933 | -61.68401 | 34550 ft | 404 kts | 308° |
| 2026-04-30 21:03 | -18.76220 | -61.70742 | 34049 ft | 402 kts | 308° |
| 2026-04-30 21:03 | -18.74511 | -61.73075 | 33515 ft | 400 kts | 308° |
| 2026-04-30 21:03 | -18.72817 | -61.75388 | 33010 ft | 397 kts | 308° |
| 2026-04-30 21:03 | -18.71134 | -61.77686 | 32524 ft | 395 kts | 308° |
| 2026-04-30 21:04 | -18.69482 | -61.79941 | 32054 ft | 392 kts | 309° |
| 2026-04-30 21:04 | -18.67816 | -61.82212 | 31589 ft | 389 kts | 309° |
| 2026-04-30 21:04 | -18.64512 | -61.86716 | 30635 ft | 386 kts | 309° |
| 2026-04-30 21:05 | -18.62866 | -61.88959 | 30179 ft | 385 kts | 309° |
| 2026-04-30 21:05 | -18.61227 | -61.91191 | 29664 ft | 384 kts | 309° |
| 2026-04-30 21:05 | -18.59598 | -61.93409 | 29160 ft | 381 kts | 309° |
| 2026-04-30 21:05 | -18.57982 | -61.95609 | 28652 ft | 378 kts | 309° |
| 2026-04-30 21:06 | -18.56377 | -61.97792 | 28160 ft | 375 kts | 309° |
| 2026-04-30 21:06 | -18.54803 | -61.99933 | 27684 ft | 372 kts | 309° |
| 2026-04-30 21:06 | -18.53204 | -62.02107 | 27204 ft | 369 kts | 308° |
| 2026-04-30 21:06 | -18.51634 | -62.04241 | 26729 ft | 367 kts | 308° |
| 2026-04-30 21:07 | -18.50097 | -62.06329 | 26269 ft | 365 kts | 308° |
| 2026-04-30 21:07 | -18.48545 | -62.08436 | 25784 ft | 363 kts | 308° |
| 2026-04-30 21:07 | -18.46997 | -62.10538 | 25309 ft | 362 kts | 308° |
| 2026-04-30 21:07 | -18.45455 | -62.12631 | 24828 ft | 361 kts | 308° |
| 2026-04-30 21:08 | -18.43919 | -62.14715 | 24352 ft | 360 kts | 308° |
| 2026-04-30 21:08 | -18.42388 | -62.16792 | 23880 ft | 359 kts | 308° |
| 2026-04-30 21:08 | -18.40855 | -62.18870 | 23393 ft | 358 kts | 308° |
| 2026-04-30 21:08 | -18.39331 | -62.20937 | 22845 ft | 357 kts | 308° |
| 2026-04-30 21:09 | -18.37812 | -62.22996 | 22358 ft | 354 kts | 308° |
| 2026-04-30 21:09 | -18.36304 | -62.25038 | 21873 ft | 351 kts | 308° |
| 2026-04-30 21:09 | -18.34812 | -62.27059 | 21403 ft | 349 kts | 308° |
| 2026-04-30 21:09 | -18.33326 | -62.29071 | 20930 ft | 347 kts | 308° |
| 2026-04-30 21:10 | -18.31869 | -62.31043 | 20464 ft | 345 kts | 308° |
| 2026-04-30 21:10 | -18.30401 | -62.33030 | 19991 ft | 343 kts | 308° |
| 2026-04-30 21:10 | -18.28952 | -62.34990 | 19517 ft | 342 kts | 308° |
| 2026-04-30 21:10 | -18.27473 | -62.36989 | 19038 ft | 341 kts | 308° |
| 2026-04-30 21:11 | -18.26021 | -62.38953 | 18555 ft | 338 kts | 308° |
| 2026-04-30 21:11 | -18.24578 | -62.40903 | 18083 ft | 338 kts | 308° |
| 2026-04-30 21:11 | -18.23136 | -62.42850 | 17562 ft | 337 kts | 308° |
| 2026-04-30 21:11 | -18.21700 | -62.44790 | 17093 ft | 334 kts | 308° |
| 2026-04-30 21:12 | -18.20275 | -62.46714 | 16626 ft | 332 kts | 308° |
| 2026-04-30 21:12 | -18.18859 | -62.48626 | 16159 ft | 330 kts | 308° |
| 2026-04-30 21:12 | -18.17453 | -62.50523 | 15704 ft | 328 kts | 309° |
| 2026-04-30 21:12 | -18.16071 | -62.52387 | 15229 ft | 327 kts | 309° |
| 2026-04-30 21:13 | -18.14674 | -62.54271 | 14767 ft | 325 kts | 309° |
| 2026-04-30 21:13 | -18.13287 | -62.56141 | 14296 ft | 324 kts | 309° |
| 2026-04-30 21:13 | -18.11902 | -62.58008 | 13833 ft | 322 kts | 309° |
| 2026-04-30 21:13 | -18.10526 | -62.59862 | 13325 ft | 321 kts | 309° |
| 2026-04-30 21:14 | -18.09166 | -62.61695 | 12848 ft | 314 kts | 309° |
| 2026-04-30 21:14 | -18.07838 | -62.63485 | 12390 ft | 307 kts | 309° |
| 2026-04-30 21:14 | -18.06547 | -62.65222 | 11948 ft | 304 kts | 309° |
| 2026-04-30 21:14 | -18.05248 | -62.66971 | 11513 ft | 302 kts | 309° |